AVA9386 SKRG-SKCG
Flight info
| Callsign | AVA9386 |
|---|---|
| Flight time | 0h 43m |
| Altitude | 31000 |
| Route | BUTAL3A BUTAL DCT AKPAM AKPAM2A |
| Aircraft | A320/M-SDE3FGHIRWY/LB1 |
Departure
| Time | 2026-04-22 21:24 |
|---|---|
| Airport | Jose Maria Córdova International Airport (SKRG) |
Arrival
| Time | 2026-04-22 22:07 |
|---|---|
| Airport | Rafael Nuñez International Airport (SKCG) |
| Time | Latitude | Longitude | Altitude | Speed | Heading |
|---|---|---|---|---|---|
| 2026-04-22 20:54 | 6.16974 | -75.42800 | 6861 ft | 0 kts | 340° |
| 2026-04-22 21:14 | 6.16972 | -75.42799 | 7016 ft | 2 kts | 340° |
| 2026-04-22 21:15 | 6.16948 | -75.42793 | 7017 ft | 4 kts | 358° |
| 2026-04-22 21:15 | 6.16923 | -75.42798 | 7020 ft | 4 kts | 46° |
| 2026-04-22 21:15 | 6.16915 | -75.42810 | 7020 ft | 1 kts | 72° |
| 2026-04-22 21:15 | 6.16914 | -75.42812 | 7020 ft | 0 kts | 72° |
| 2026-04-22 21:18 | 6.16914 | -75.42811 | 7020 ft | 0 kts | 72° |
| 2026-04-22 21:18 | 6.16928 | -75.42770 | 7017 ft | 12 kts | 68° |
| 2026-04-22 21:18 | 6.16987 | -75.42690 | 7017 ft | 15 kts | 42° |
| 2026-04-22 21:19 | 6.17043 | -75.42609 | 7019 ft | 15 kts | 96° |
| 2026-04-22 21:19 | 6.16971 | -75.42545 | 7019 ft | 16 kts | 149° |
| 2026-04-22 21:19 | 6.16837 | -75.42486 | 7014 ft | 26 kts | 176° |
| 2026-04-22 21:19 | 6.16628 | -75.42486 | 7001 ft | 34 kts | 180° |
| 2026-04-22 21:20 | 6.16398 | -75.42483 | 6991 ft | 32 kts | 180° |
| 2026-04-22 21:20 | 6.16177 | -75.42483 | 6998 ft | 30 kts | 179° |
| 2026-04-22 21:20 | 6.15977 | -75.42481 | 6998 ft | 27 kts | 179° |
| 2026-04-22 21:20 | 6.15797 | -75.42479 | 6996 ft | 26 kts | 179° |
| 2026-04-22 21:21 | 6.15607 | -75.42478 | 6994 ft | 29 kts | 179° |
| 2026-04-22 21:21 | 6.15397 | -75.42476 | 6993 ft | 32 kts | 179° |
| 2026-04-22 21:21 | 6.15175 | -75.42473 | 6993 ft | 31 kts | 179° |
| 2026-04-22 21:21 | 6.14972 | -75.42474 | 6994 ft | 27 kts | 180° |
| 2026-04-22 21:22 | 6.14838 | -75.42471 | 6992 ft | 14 kts | 128° |
| 2026-04-22 21:22 | 6.14836 | -75.42396 | 6993 ft | 8 kts | 71° |
| 2026-04-22 21:22 | 6.14862 | -75.42379 | 6993 ft | 2 kts | 17° |
| 2026-04-22 21:22 | 6.14893 | -75.42356 | 6993 ft | 9 kts | 37° |
| 2026-04-22 21:23 | 6.14960 | -75.42313 | 6993 ft | 15 kts | 21° |
| 2026-04-22 21:23 | 6.15246 | -75.42306 | 6996 ft | 75 kts | 0° |
| 2026-04-22 21:23 | 6.15977 | -75.42312 | 7001 ft | 132 kts | 360° |
| 2026-04-22 21:23 | 6.17048 | -75.42317 | 7078 ft | 172 kts | 359° |
| 2026-04-22 21:24 | 6.18220 | -75.42320 | 7756 ft | 169 kts | 358° |
| 2026-04-22 21:24 | 6.19407 | -75.42331 | 8387 ft | 175 kts | 358° |
| 2026-04-22 21:24 | 6.20695 | -75.42342 | 8762 ft | 196 kts | 358° |
| 2026-04-22 21:24 | 6.22126 | -75.42353 | 8930 ft | 216 kts | 358° |
| 2026-04-22 21:25 | 6.23708 | -75.42365 | 9047 ft | 238 kts | 358° |
| 2026-04-22 21:25 | 6.25453 | -75.42380 | 9401 ft | 263 kts | 358° |
| 2026-04-22 21:25 | 6.27388 | -75.42396 | 9697 ft | 285 kts | 358° |
| 2026-04-22 21:25 | 6.29388 | -75.42408 | 10250 ft | 296 kts | 358° |
| 2026-04-22 21:26 | 6.31546 | -75.42420 | 10523 ft | 317 kts | 359° |
| 2026-04-22 21:26 | 6.33790 | -75.42433 | 10791 ft | 335 kts | 359° |
| 2026-04-22 21:26 | 6.36178 | -75.42426 | 11364 ft | 342 kts | 359° |
| 2026-04-22 21:26 | 6.38547 | -75.42403 | 12001 ft | 347 kts | 360° |
| 2026-04-22 21:27 | 6.40998 | -75.42368 | 12652 ft | 351 kts | 360° |
| 2026-04-22 21:27 | 6.43454 | -75.42333 | 13284 ft | 354 kts | 359° |
| 2026-04-22 21:27 | 6.45921 | -75.42340 | 13877 ft | 358 kts | 358° |
| 2026-04-22 21:27 | 6.48428 | -75.42393 | 14432 ft | 361 kts | 357° |
| 2026-04-22 21:28 | 6.50959 | -75.42469 | 14968 ft | 365 kts | 357° |
| 2026-04-22 21:28 | 6.53507 | -75.42551 | 15479 ft | 369 kts | 357° |
| 2026-04-22 21:28 | 6.56088 | -75.42630 | 16006 ft | 373 kts | 357° |
| 2026-04-22 21:28 | 6.58688 | -75.42700 | 16547 ft | 376 kts | 358° |
| 2026-04-22 21:29 | 6.61319 | -75.42765 | 17080 ft | 380 kts | 358° |
| 2026-04-22 21:29 | 6.63976 | -75.42829 | 17609 ft | 383 kts | 358° |
| 2026-04-22 21:29 | 6.66648 | -75.42892 | 18125 ft | 387 kts | 358° |
| 2026-04-22 21:29 | 6.69352 | -75.42953 | 18611 ft | 390 kts | 358° |
| 2026-04-22 21:30 | 6.72081 | -75.43015 | 19060 ft | 393 kts | 358° |
| 2026-04-22 21:30 | 6.74826 | -75.43080 | 19515 ft | 396 kts | 358° |
| 2026-04-22 21:30 | 6.77582 | -75.43147 | 19968 ft | 398 kts | 358° |
| 2026-04-22 21:30 | 6.80358 | -75.43216 | 20421 ft | 401 kts | 358° |
| 2026-04-22 21:31 | 6.83155 | -75.43284 | 20859 ft | 403 kts | 358° |
| 2026-04-22 21:31 | 6.85970 | -75.43352 | 21297 ft | 406 kts | 358° |
| 2026-04-22 21:31 | 6.88796 | -75.43420 | 21724 ft | 408 kts | 358° |
| 2026-04-22 21:31 | 6.91650 | -75.43489 | 22132 ft | 411 kts | 358° |
| 2026-04-22 21:32 | 6.94513 | -75.43557 | 22543 ft | 413 kts | 358° |
| 2026-04-22 21:32 | 6.97401 | -75.43625 | 22956 ft | 416 kts | 358° |
| 2026-04-22 21:32 | 7.00302 | -75.43691 | 23383 ft | 419 kts | 358° |
| 2026-04-22 21:32 | 7.03265 | -75.43757 | 23753 ft | 422 kts | 358° |
| 2026-04-22 21:33 | 7.06172 | -75.43822 | 24094 ft | 424 kts | 358° |
| 2026-04-22 21:33 | 7.09172 | -75.43893 | 24421 ft | 426 kts | 358° |
| 2026-04-22 21:33 | 7.12142 | -75.43967 | 24730 ft | 429 kts | 358° |
| 2026-04-22 21:33 | 7.15129 | -75.44041 | 25038 ft | 431 kts | 358° |
| 2026-04-22 21:34 | 7.18135 | -75.44112 | 25365 ft | 433 kts | 359° |
| 2026-04-22 21:34 | 7.21163 | -75.44184 | 25685 ft | 435 kts | 359° |
| 2026-04-22 21:34 | 7.24198 | -75.44257 | 25994 ft | 438 kts | 358° |
| 2026-04-22 21:34 | 7.27248 | -75.44332 | 26317 ft | 440 kts | 359° |
| 2026-04-22 21:35 | 7.30308 | -75.44407 | 26631 ft | 442 kts | 359° |
| 2026-04-22 21:35 | 7.33388 | -75.44480 | 26934 ft | 444 kts | 359° |
| 2026-04-22 21:35 | 7.36483 | -75.44552 | 27226 ft | 446 kts | 359° |
| 2026-04-22 21:35 | 7.39590 | -75.44625 | 27527 ft | 448 kts | 359° |
| 2026-04-22 21:36 | 7.42714 | -75.44699 | 27833 ft | 450 kts | 359° |
| 2026-04-22 21:36 | 7.45843 | -75.44773 | 28134 ft | 451 kts | 359° |
| 2026-04-22 21:36 | 7.48996 | -75.44850 | 28426 ft | 453 kts | 359° |
| 2026-04-22 21:36 | 7.52154 | -75.44927 | 28717 ft | 455 kts | 359° |
| 2026-04-22 21:37 | 7.55325 | -75.45003 | 29012 ft | 457 kts | 359° |
| 2026-04-22 21:37 | 7.58516 | -75.45081 | 29309 ft | 459 kts | 359° |
| 2026-04-22 21:37 | 7.61721 | -75.45160 | 29596 ft | 461 kts | 359° |
| 2026-04-22 21:37 | 7.64927 | -75.45241 | 29879 ft | 463 kts | 359° |
| 2026-04-22 21:38 | 7.68160 | -75.45321 | 30117 ft | 465 kts | 359° |
| 2026-04-22 21:38 | 7.71396 | -75.45400 | 30343 ft | 467 kts | 359° |
| 2026-04-22 21:38 | 7.74653 | -75.45477 | 30566 ft | 468 kts | 359° |
| 2026-04-22 21:38 | 7.77909 | -75.45549 | 30773 ft | 470 kts | 359° |
| 2026-04-22 21:39 | 7.84388 | -75.45693 | 30885 ft | 452 kts | 359° |
| 2026-04-22 21:39 | 7.90562 | -75.45837 | 30887 ft | 440 kts | 359° |
| 2026-04-22 21:40 | 7.96706 | -75.45959 | 30874 ft | 438 kts | 359° |
| 2026-04-22 21:40 | 8.02800 | -75.46086 | 30873 ft | 438 kts | 359° |
| 2026-04-22 21:41 | 8.08898 | -75.46214 | 30869 ft | 438 kts | 359° |
| 2026-04-22 21:41 | 8.14990 | -75.46337 | 30871 ft | 438 kts | 359° |
| 2026-04-22 21:42 | 8.21078 | -75.46463 | 30865 ft | 438 kts | 359° |
| 2026-04-22 21:42 | 8.27165 | -75.46593 | 30857 ft | 438 kts | 359° |
| 2026-04-22 21:43 | 8.33256 | -75.46720 | 30862 ft | 438 kts | 359° |
| 2026-04-22 21:43 | 8.39344 | -75.46848 | 30859 ft | 438 kts | 359° |
| 2026-04-22 21:44 | 8.44443 | -75.46951 | 30854 ft | 438 kts | 359° |
| 2026-04-22 21:44 | 8.50536 | -75.47075 | 30854 ft | 437 kts | 359° |
| 2026-04-22 21:45 | 8.56621 | -75.47199 | 30856 ft | 437 kts | 358° |
| 2026-04-22 21:45 | 8.62706 | -75.47326 | 30842 ft | 437 kts | 358° |
| 2026-04-22 21:46 | 8.65726 | -75.47390 | 30624 ft | 430 kts | 358° |
| 2026-04-22 21:46 | 8.68702 | -75.47454 | 30196 ft | 426 kts | 358° |
| 2026-04-22 21:46 | 8.71658 | -75.47516 | 29672 ft | 424 kts | 358° |
| 2026-04-22 21:46 | 8.74602 | -75.47577 | 29197 ft | 420 kts | 358° |
| 2026-04-22 21:47 | 8.77548 | -75.47637 | 28732 ft | 416 kts | 358° |
| 2026-04-22 21:47 | 8.80427 | -75.47696 | 28283 ft | 411 kts | 358° |
| 2026-04-22 21:47 | 8.83268 | -75.47755 | 27841 ft | 407 kts | 358° |
| 2026-04-22 21:47 | 8.86093 | -75.47815 | 27389 ft | 404 kts | 358° |
| 2026-04-22 21:48 | 8.88898 | -75.47875 | 26941 ft | 401 kts | 358° |
| 2026-04-22 21:48 | 8.91671 | -75.47936 | 26477 ft | 398 kts | 358° |
| 2026-04-22 21:48 | 8.94438 | -75.47997 | 26019 ft | 396 kts | 358° |
| 2026-04-22 21:48 | 8.97190 | -75.48057 | 25548 ft | 395 kts | 358° |
| 2026-04-22 21:49 | 8.99931 | -75.48114 | 25068 ft | 394 kts | 358° |
| 2026-04-22 21:49 | 9.02665 | -75.48170 | 24583 ft | 393 kts | 358° |
| 2026-04-22 21:49 | 9.05399 | -75.48225 | 24088 ft | 393 kts | 359° |
| 2026-04-22 21:49 | 9.08133 | -75.48279 | 23592 ft | 393 kts | 359° |
| 2026-04-22 21:50 | 9.10873 | -75.48333 | 23038 ft | 393 kts | 359° |
| 2026-04-22 21:50 | 9.13597 | -75.48388 | 22534 ft | 391 kts | 359° |
| 2026-04-22 21:50 | 9.16312 | -75.48445 | 22058 ft | 389 kts | 359° |
| 2026-04-22 21:50 | 9.19016 | -75.48501 | 21570 ft | 387 kts | 358° |
| 2026-04-22 21:51 | 9.21687 | -75.48557 | 21153 ft | 383 kts | 358° |
| 2026-04-22 21:51 | 9.24381 | -75.48613 | 20763 ft | 379 kts | 358° |
| 2026-04-22 21:51 | 9.27012 | -75.48667 | 20171 ft | 374 kts | 358° |
| 2026-04-22 21:52 | 9.32040 | -75.48772 | 19281 ft | 350 kts | 358° |
| 2026-04-22 21:52 | 9.34431 | -75.48823 | 18862 ft | 339 kts | 358° |
| 2026-04-22 21:52 | 9.36764 | -75.48872 | 18454 ft | 330 kts | 358° |
| 2026-04-22 21:52 | 9.39031 | -75.48919 | 18054 ft | 325 kts | 358° |
| 2026-04-22 21:53 | 9.41302 | -75.48965 | 17621 ft | 326 kts | 358° |
| 2026-04-22 21:53 | 9.43555 | -75.49012 | 17354 ft | 322 kts | 358° |
| 2026-04-22 21:53 | 9.45790 | -75.49060 | 16988 ft | 321 kts | 358° |
| 2026-04-22 21:53 | 9.48021 | -75.49111 | 16612 ft | 321 kts | 358° |
| 2026-04-22 21:54 | 9.50258 | -75.49163 | 16239 ft | 321 kts | 358° |
| 2026-04-22 21:54 | 9.52498 | -75.49234 | 15863 ft | 322 kts | 357° |
| 2026-04-22 21:54 | 9.54736 | -75.49319 | 15491 ft | 322 kts | 357° |
| 2026-04-22 21:54 | 9.56977 | -75.49407 | 15118 ft | 323 kts | 357° |
| 2026-04-22 21:55 | 9.59223 | -75.49497 | 14743 ft | 324 kts | 357° |
| 2026-04-22 21:55 | 9.61475 | -75.49585 | 14368 ft | 325 kts | 357° |
| 2026-04-22 21:55 | 9.63740 | -75.49673 | 13990 ft | 325 kts | 357° |
| 2026-04-22 21:55 | 9.66010 | -75.49760 | 13604 ft | 327 kts | 357° |
| 2026-04-22 21:56 | 9.68278 | -75.49846 | 13191 ft | 327 kts | 357° |
| 2026-04-22 21:56 | 9.70548 | -75.49929 | 12796 ft | 326 kts | 357° |
| 2026-04-22 21:56 | 9.72807 | -75.50011 | 12416 ft | 325 kts | 357° |
| 2026-04-22 21:56 | 9.75061 | -75.50093 | 12027 ft | 324 kts | 357° |
| 2026-04-22 21:57 | 9.77317 | -75.50178 | 11633 ft | 324 kts | 357° |
| 2026-04-22 21:57 | 9.79595 | -75.50265 | 11220 ft | 323 kts | 357° |
| 2026-04-22 21:57 | 9.81843 | -75.50349 | 10822 ft | 323 kts | 357° |
| 2026-04-22 21:57 | 9.84084 | -75.50431 | 10414 ft | 323 kts | 357° |
| 2026-04-22 21:58 | 9.86326 | -75.50514 | 10066 ft | 320 kts | 357° |
| 2026-04-22 21:58 | 9.88544 | -75.50595 | 9784 ft | 315 kts | 357° |
| 2026-04-22 21:58 | 9.90701 | -75.50674 | 9641 ft | 305 kts | 357° |
| 2026-04-22 21:58 | 9.92805 | -75.50751 | 9336 ft | 300 kts | 357° |
| 2026-04-22 21:59 | 9.94876 | -75.50827 | 8741 ft | 296 kts | 357° |
| 2026-04-22 21:59 | 9.96926 | -75.50903 | 8104 ft | 293 kts | 358° |
| 2026-04-22 21:59 | 9.98953 | -75.50979 | 7535 ft | 289 kts | 358° |
| 2026-04-22 21:59 | 10.00936 | -75.51053 | 7089 ft | 280 kts | 358° |
| 2026-04-22 22:00 | 10.02848 | -75.51126 | 6681 ft | 271 kts | 358° |
| 2026-04-22 22:00 | 10.04726 | -75.51197 | 6276 ft | 263 kts | 358° |
| 2026-04-22 22:00 | 10.06531 | -75.51267 | 5873 ft | 259 kts | 358° |
| 2026-04-22 22:00 | 10.08338 | -75.51334 | 5458 ft | 260 kts | 358° |
| 2026-04-22 22:01 | 10.10142 | -75.51400 | 5062 ft | 261 kts | 358° |
| 2026-04-22 22:01 | 10.11986 | -75.51469 | 4640 ft | 262 kts | 358° |
| 2026-04-22 22:01 | 10.13816 | -75.51539 | 4206 ft | 264 kts | 358° |
| 2026-04-22 22:01 | 10.15644 | -75.51607 | 3882 ft | 260 kts | 358° |
| 2026-04-22 22:02 | 10.17405 | -75.51673 | 3819 ft | 246 kts | 358° |
| 2026-04-22 22:02 | 10.19073 | -75.51734 | 3733 ft | 235 kts | 358° |
| 2026-04-22 22:02 | 10.20672 | -75.51794 | 3630 ft | 225 kts | 358° |
| 2026-04-22 22:02 | 10.22207 | -75.51851 | 3529 ft | 217 kts | 358° |
| 2026-04-22 22:03 | 10.23684 | -75.51960 | 3436 ft | 210 kts | 354° |
| 2026-04-22 22:03 | 10.25133 | -75.52035 | 3330 ft | 208 kts | 360° |
| 2026-04-22 22:03 | 10.26580 | -75.52010 | 3105 ft | 208 kts | 2° |
| 2026-04-22 22:03 | 10.28003 | -75.51956 | 2868 ft | 202 kts | 2° |
| 2026-04-22 22:04 | 10.29390 | -75.51899 | 2597 ft | 197 kts | 2° |
| 2026-04-22 22:04 | 10.30745 | -75.51843 | 2346 ft | 193 kts | 2° |
| 2026-04-22 22:04 | 10.32043 | -75.51790 | 2100 ft | 179 kts | 1° |
| 2026-04-22 22:04 | 10.33243 | -75.51740 | 1871 ft | 166 kts | 2° |
| 2026-04-22 22:05 | 10.34351 | -75.51695 | 1673 ft | 152 kts | 1° |
| 2026-04-22 22:05 | 10.35369 | -75.51653 | 1480 ft | 143 kts | 2° |
| 2026-04-22 22:05 | 10.36352 | -75.51613 | 1309 ft | 142 kts | 2° |
| 2026-04-22 22:05 | 10.37329 | -75.51573 | 1124 ft | 141 kts | 1° |
| 2026-04-22 22:06 | 10.38312 | -75.51533 | 943 ft | 141 kts | 4° |
| 2026-04-22 22:06 | 10.39290 | -75.51493 | 776 ft | 140 kts | 3° |
| 2026-04-22 22:06 | 10.40242 | -75.51454 | 615 ft | 140 kts | 1° |
| 2026-04-22 22:06 | 10.41206 | -75.51414 | 418 ft | 140 kts | 4° |
| 2026-04-22 22:07 | 10.42173 | -75.51374 | 242 ft | 136 kts | 1° |
| 2026-04-22 22:07 | 10.43111 | -75.51335 | 69 ft | 135 kts | 1° |
| 2026-04-22 22:07 | 10.43967 | -75.51301 | 51 ft | 101 kts | 3° |
| 2026-04-22 22:07 | 10.44365 | -75.51285 | 49 ft | 18 kts | 2° |
| 2026-04-22 22:08 | 10.44470 | -75.51280 | 49 ft | 15 kts | 2° |
| 2026-04-22 22:08 | 10.44548 | -75.51307 | 51 ft | 12 kts | 284° |
| 2026-04-22 22:08 | 10.44550 | -75.51358 | 51 ft | 4 kts | 272° |
| 2026-04-22 22:08 | 10.44551 | -75.51369 | 51 ft | 1 kts | 277° |
| 2026-04-22 22:09 | 10.44551 | -75.51372 | 51 ft | 0 kts | 277° |
| 2026-04-22 22:10 | 10.44552 | -75.51375 | 51 ft | 1 kts | 277° |
| 2026-04-22 22:10 | 10.44554 | -75.51388 | 51 ft | 3 kts | 277° |
| 2026-04-22 22:11 | 10.44555 | -75.51403 | 51 ft | 4 kts | 275° |
| 2026-04-22 22:11 | 10.44557 | -75.51427 | 51 ft | 3 kts | 277° |
| 2026-04-22 22:11 | 10.44563 | -75.51457 | 49 ft | 5 kts | 281° |
| 2026-04-22 22:11 | 10.44568 | -75.51489 | 51 ft | 5 kts | 275° |
| 2026-04-22 22:12 | 10.44570 | -75.51521 | 51 ft | 5 kts | 272° |
| 2026-04-22 22:12 | 10.44570 | -75.51547 | 51 ft | 0 kts | 271° |
| 2026-04-22 22:12 | 10.44571 | -75.51552 | 51 ft | 1 kts | 271° |